sensor_id;sensor_type;location;lat;lon;timestamp;P1;durP1;ratioP1;P2;durP2;ratioP2
18170;SDS011;9210;48.358;10.902;2023-06-10T00:00:49;12.35;;;8.32;;
18170;SDS011;9210;48.358;10.902;2023-06-10T00:03:19;12.52;;;8.35;;
18170;SDS011;9210;48.358;10.902;2023-06-10T00:05:50;10.88;;;7.78;;
18170;SDS011;9210;48.358;10.902;2023-06-10T00:08:18;11.48;;;8.70;;
18170;SDS011;9210;48.358;10.902;2023-06-10T00:10:47;10.68;;;7.82;;
18170;SDS011;9210;48.358;10.902;2023-06-10T00:13:16;10.90;;;8.05;;
18170;SDS011;9210;48.358;10.902;2023-06-10T00:15:45;11.80;;;8.20;;
18170;SDS011;9210;48.358;10.902;2023-06-10T00:18:13;10.13;;;7.72;;
18170;SDS011;9210;48.358;10.902;2023-06-10T00:20:43;11.70;;;8.10;;
18170;SDS011;9210;48.358;10.902;2023-06-10T00:23:13;11.65;;;8.23;;
18170;SDS011;9210;48.358;10.902;2023-06-10T00:25:41;11.35;;;8.48;;
18170;SDS011;9210;48.358;10.902;2023-06-10T00:28:10;12.63;;;8.15;;
18170;SDS011;9210;48.358;10.902;2023-06-10T00:30:38;11.73;;;8.90;;
18170;SDS011;9210;48.358;10.902;2023-06-10T00:33:09;10.80;;;7.65;;
18170;SDS011;9210;48.358;10.902;2023-06-10T00:35:37;10.45;;;8.02;;
18170;SDS011;9210;48.358;10.902;2023-06-10T00:38:07;14.55;;;8.80;;
18170;SDS011;9210;48.358;10.902;2023-06-10T00:40:38;13.70;;;8.50;;
18170;SDS011;9210;48.358;10.902;2023-06-10T00:43:07;10.32;;;7.63;;
18170;SDS011;9210;48.358;10.902;2023-06-10T00:45:35;11.65;;;8.48;;
18170;SDS011;9210;48.358;10.902;2023-06-10T00:48:04;14.35;;;8.25;;
18170;SDS011;9210;48.358;10.902;2023-06-10T00:50:33;10.27;;;7.60;;
18170;SDS011;9210;48.358;10.902;2023-06-10T00:53:05;11.20;;;7.82;;
18170;SDS011;9210;48.358;10.902;2023-06-10T00:55:37;11.57;;;8.20;;
18170;SDS011;9210;48.358;10.902;2023-06-10T00:58:05;10.98;;;8.25;;
18170;SDS011;9210;48.358;10.902;2023-06-10T01:00:34;13.15;;;8.55;;
18170;SDS011;9210;48.358;10.902;2023-06-10T01:03:03;12.73;;;8.15;;
18170;SDS011;9210;48.358;10.902;2023-06-10T01:05:34;13.10;;;8.52;;
18170;SDS011;9210;48.358;10.902;2023-06-10T01:08:05;13.43;;;8.32;;
18170;SDS011;9210;48.358;10.902;2023-06-10T01:10:41;13.25;;;8.80;;
18170;SDS011;9210;48.358;10.902;2023-06-10T01:13:10;11.57;;;8.68;;
18170;SDS011;9210;48.358;10.902;2023-06-10T01:15:40;12.52;;;8.43;;
18170;SDS011;9210;48.358;10.902;2023-06-10T01:18:09;12.77;;;8.48;;
18170;SDS011;9210;48.358;10.902;2023-06-10T01:20:42;12.00;;;8.40;;
18170;SDS011;9210;48.358;10.902;2023-06-10T01:23:14;11.73;;;8.43;;
18170;SDS011;9210;48.358;10.902;2023-06-10T01:25:45;11.52;;;8.77;;
18170;SDS011;9210;48.358;10.902;2023-06-10T01:28:14;11.73;;;8.55;;
18170;SDS011;9210;48.358;10.902;2023-06-10T01:30:48;15.10;;;8.50;;
18170;SDS011;9210;48.358;10.902;2023-06-10T01:33:19;11.90;;;8.65;;
18170;SDS011;9210;48.358;10.902;2023-06-10T01:35:53;13.00;;;8.27;;
18170;SDS011;9210;48.358;10.902;2023-06-10T01:38:24;13.00;;;8.50;;
18170;SDS011;9210;48.358;10.902;2023-06-10T01:40:53;11.90;;;8.63;;
18170;SDS011;9210;48.358;10.902;2023-06-10T01:43:24;11.15;;;7.85;;
18170;SDS011;9210;48.358;10.902;2023-06-10T01:45:52;12.65;;;8.82;;
18170;SDS011;9210;48.358;10.902;2023-06-10T01:48:21;14.80;;;8.57;;
18170;SDS011;9210;48.358;10.902;2023-06-10T01:50:50;12.20;;;8.60;;
18170;SDS011;9210;48.358;10.902;2023-06-10T01:53:18;11.80;;;8.73;;
18170;SDS011;9210;48.358;10.902;2023-06-10T01:55:48;10.95;;;7.93;;
18170;SDS011;9210;48.358;10.902;2023-06-10T01:58:17;13.77;;;8.65;;
18170;SDS011;9210;48.358;10.902;2023-06-10T02:00:45;10.50;;;7.82;;
18170;SDS011;9210;48.358;10.902;2023-06-10T02:03:14;11.48;;;8.43;;
18170;SDS011;9210;48.358;10.902;2023-06-10T02:05:43;12.63;;;8.88;;
18170;SDS011;9210;48.358;10.902;2023-06-10T02:08:11;12.48;;;8.65;;
18170;SDS011;9210;48.358;10.902;2023-06-10T02:10:40;13.00;;;8.48;;
18170;SDS011;9210;48.358;10.902;2023-06-10T02:13:10;13.25;;;8.52;;
18170;SDS011;9210;48.358;10.902;2023-06-10T02:15:38;13.15;;;8.43;;
18170;SDS011;9210;48.358;10.902;2023-06-10T02:18:07;12.07;;;8.45;;
18170;SDS011;9210;48.358;10.902;2023-06-10T02:20:37;11.48;;;8.75;;
18170;SDS011;9210;48.358;10.902;2023-06-10T02:23:05;12.75;;;8.77;;
18170;SDS011;9210;48.358;10.902;2023-06-10T02:25:35;13.73;;;8.70;;
18170;SDS011;9210;48.358;10.902;2023-06-10T02:28:03;12.77;;;9.07;;
18170;SDS011;9210;48.358;10.902;2023-06-10T02:30:34;14.02;;;9.45;;
18170;SDS011;9210;48.358;10.902;2023-06-10T02:33:03;14.07;;;9.88;;
18170;SDS011;9210;48.358;10.902;2023-06-10T02:35:31;14.50;;;9.80;;
18170;SDS011;9210;48.358;10.902;2023-06-10T02:38:00;14.10;;;9.63;;
18170;SDS011;9210;48.358;10.902;2023-06-10T02:40:29;13.95;;;9.43;;
18170;SDS011;9210;48.358;10.902;2023-06-10T02:42:57;12.60;;;9.30;;
18170;SDS011;9210;48.358;10.902;2023-06-10T02:45:26;12.07;;;9.23;;
18170;SDS011;9210;48.358;10.902;2023-06-10T02:47:58;12.32;;;9.13;;
18170;SDS011;9210;48.358;10.902;2023-06-10T02:50:27;13.82;;;9.50;;
18170;SDS011;9210;48.358;10.902;2023-06-10T02:53:04;12.75;;;9.38;;
18170;SDS011;9210;48.358;10.902;2023-06-10T02:55:34;14.38;;;9.65;;
18170;SDS011;9210;48.358;10.902;2023-06-10T02:58:06;13.85;;;9.98;;
18170;SDS011;9210;48.358;10.902;2023-06-10T03:00:34;12.88;;;9.30;;
18170;SDS011;9210;48.358;10.902;2023-06-10T03:03:04;12.20;;;8.73;;
18170;SDS011;9210;48.358;10.902;2023-06-10T03:05:41;11.60;;;9.30;;
18170;SDS011;9210;48.358;10.902;2023-06-10T03:08:10;14.30;;;9.38;;
18170;SDS011;9210;48.358;10.902;2023-06-10T03:10:41;13.57;;;9.88;;
18170;SDS011;9210;48.358;10.902;2023-06-10T03:13:14;13.57;;;9.35;;
18170;SDS011;9210;48.358;10.902;2023-06-10T03:15:43;12.88;;;8.95;;
18170;SDS011;9210;48.358;10.902;2023-06-10T03:18:17;15.53;;;9.70;;
18170;SDS011;9210;48.358;10.902;2023-06-10T03:20:49;13.03;;;9.70;;
18170;SDS011;9210;48.358;10.902;2023-06-10T03:23:18;13.47;;;9.77;;
18170;SDS011;9210;48.358;10.902;2023-06-10T03:25:47;13.13;;;9.25;;
18170;SDS011;9210;48.358;10.902;2023-06-10T03:28:18;14.80;;;9.97;;
18170;SDS011;9210;48.358;10.902;2023-06-10T03:30:47;12.97;;;9.07;;
18170;SDS011;9210;48.358;10.902;2023-06-10T03:33:17;13.07;;;9.90;;
18170;SDS011;9210;48.358;10.902;2023-06-10T03:35:46;13.57;;;9.87;;
18170;SDS011;9210;48.358;10.902;2023-06-10T03:38:15;14.95;;;10.13;;
18170;SDS011;9210;48.358;10.902;2023-06-10T03:40:44;16.73;;;9.70;;
18170;SDS011;9210;48.358;10.902;2023-06-10T03:43:13;12.25;;;9.15;;
18170;SDS011;9210;48.358;10.902;2023-06-10T03:45:42;15.27;;;9.27;;
18170;SDS011;9210;48.358;10.902;2023-06-10T03:48:11;14.32;;;9.50;;
18170;SDS011;9210;48.358;10.902;2023-06-10T03:50:46;17.95;;;10.95;;
18170;SDS011;9210;48.358;10.902;2023-06-10T03:53:17;13.87;;;10.27;;
18170;SDS011;9210;48.358;10.902;2023-06-10T03:55:47;16.23;;;10.93;;
18170;SDS011;9210;48.358;10.902;2023-06-10T03:58:19;13.60;;;9.87;;
18170;SDS011;9210;48.358;10.902;2023-06-10T04:00:47;15.48;;;10.18;;
18170;SDS011;9210;48.358;10.902;2023-06-10T04:03:16;13.40;;;9.63;;
18170;SDS011;9210;48.358;10.902;2023-06-10T04:05:51;14.97;;;10.47;;
18170;SDS011;9210;48.358;10.902;2023-06-10T04:08:20;12.85;;;9.60;;
18170;SDS011;9210;48.358;10.902;2023-06-10T04:10:48;14.20;;;9.83;;
18170;SDS011;9210;48.358;10.902;2023-06-10T04:13:17;14.23;;;9.53;;
18170;SDS011;9210;48.358;10.902;2023-06-10T04:15:53;13.13;;;9.40;;
18170;SDS011;9210;48.358;10.902;2023-06-10T04:18:21;14.67;;;9.53;;
18170;SDS011;9210;48.358;10.902;2023-06-10T04:20:55;12.97;;;9.27;;
18170;SDS011;9210;48.358;10.902;2023-06-10T04:23:23;12.87;;;10.10;;
18170;SDS011;9210;48.358;10.902;2023-06-10T04:25:52;13.60;;;9.20;;
18170;SDS011;9210;48.358;10.902;2023-06-10T04:28:22;13.60;;;9.13;;
18170;SDS011;9210;48.358;10.902;2023-06-10T04:30:50;14.57;;;8.93;;
18170;SDS011;9210;48.358;10.902;2023-06-10T04:33:20;12.07;;;9.10;;
18170;SDS011;9210;48.358;10.902;2023-06-10T04:35:49;14.23;;;9.40;;
18170;SDS011;9210;48.358;10.902;2023-06-10T04:38:22;13.03;;;9.47;;
18170;SDS011;9210;48.358;10.902;2023-06-10T04:40:50;12.97;;;9.13;;
18170;SDS011;9210;48.358;10.902;2023-06-10T04:43:21;11.83;;;8.63;;
18170;SDS011;9210;48.358;10.902;2023-06-10T04:45:50;12.97;;;9.23;;
18170;SDS011;9210;48.358;10.902;2023-06-10T04:48:18;13.23;;;8.57;;
18170;SDS011;9210;48.358;10.902;2023-06-10T04:50:47;12.33;;;7.97;;
18170;SDS011;9210;48.358;10.902;2023-06-10T04:53:15;13.32;;;9.00;;
18170;SDS011;9210;48.358;10.902;2023-06-10T04:55:47;12.10;;;8.98;;
18170;SDS011;9210;48.358;10.902;2023-06-10T04:58:15;12.98;;;9.55;;
18170;SDS011;9210;48.358;10.902;2023-06-10T05:00:44;13.60;;;9.23;;
18170;SDS011;9210;48.358;10.902;2023-06-10T05:03:12;12.73;;;8.77;;
18170;SDS011;9210;48.358;10.902;2023-06-10T05:05:41;12.57;;;8.80;;
18170;SDS011;9210;48.358;10.902;2023-06-10T05:08:10;13.70;;;8.98;;
18170;SDS011;9210;48.358;10.902;2023-06-10T05:10:39;12.95;;;8.82;;
18170;SDS011;9210;48.358;10.902;2023-06-10T05:13:09;13.98;;;8.15;;
18170;SDS011;9210;48.358;10.902;2023-06-10T05:15:37;11.77;;;8.50;;
18170;SDS011;9210;48.358;10.902;2023-06-10T05:18:07;13.65;;;9.50;;
18170;SDS011;9210;48.358;10.902;2023-06-10T05:20:35;11.50;;;8.60;;
18170;SDS011;9210;48.358;10.902;2023-06-10T05:23:04;11.15;;;8.32;;
18170;SDS011;9210;48.358;10.902;2023-06-10T05:25:33;10.80;;;8.00;;
18170;SDS011;9210;48.358;10.902;2023-06-10T05:28:02;12.48;;;8.43;;
18170;SDS011;9210;48.358;10.902;2023-06-10T05:30:32;13.65;;;8.57;;
18170;SDS011;9210;48.358;10.902;2023-06-10T05:33:01;12.80;;;8.45;;
18170;SDS011;9210;48.358;10.902;2023-06-10T05:35:29;12.57;;;9.18;;
18170;SDS011;9210;48.358;10.902;2023-06-10T05:37:58;11.32;;;8.48;;
18170;SDS011;9210;48.358;10.902;2023-06-10T05:40:29;11.63;;;7.60;;
18170;SDS011;9210;48.358;10.902;2023-06-10T05:42:58;11.13;;;7.50;;
18170;SDS011;9210;48.358;10.902;2023-06-10T05:45:26;12.52;;;8.93;;
18170;SDS011;9210;48.358;10.902;2023-06-10T05:47:56;12.65;;;8.43;;
18170;SDS011;9210;48.358;10.902;2023-06-10T05:50:25;16.15;;;8.63;;
18170;SDS011;9210;48.358;10.902;2023-06-10T05:52:54;10.93;;;8.07;;
18170;SDS011;9210;48.358;10.902;2023-06-10T05:55:22;10.32;;;7.90;;
18170;SDS011;9210;48.358;10.902;2023-06-10T05:57:57;12.52;;;8.30;;
18170;SDS011;9210;48.358;10.902;2023-06-10T06:00:27;13.32;;;8.43;;
18170;SDS011;9210;48.358;10.902;2023-06-10T06:02:57;13.27;;;9.15;;
18170;SDS011;9210;48.358;10.902;2023-06-10T06:05:25;12.70;;;8.70;;
18170;SDS011;9210;48.358;10.902;2023-06-10T06:07:54;14.02;;;9.60;;
18170;SDS011;9210;48.358;10.902;2023-06-10T06:10:23;13.57;;;9.02;;
18170;SDS011;9210;48.358;10.902;2023-06-10T06:12:51;16.13;;;9.70;;
18170;SDS011;9210;48.358;10.902;2023-06-10T06:15:21;13.80;;;9.45;;
18170;SDS011;9210;48.358;10.902;2023-06-10T06:17:49;14.32;;;9.38;;
18170;SDS011;9210;48.358;10.902;2023-06-10T06:20:21;15.23;;;9.60;;
18170;SDS011;9210;48.358;10.902;2023-06-10T06:22:50;14.82;;;10.00;;
18170;SDS011;9210;48.358;10.902;2023-06-10T06:25:18;16.70;;;10.63;;
18170;SDS011;9210;48.358;10.902;2023-06-10T06:27:47;13.13;;;9.13;;
18170;SDS011;9210;48.358;10.902;2023-06-10T06:30:16;14.35;;;10.25;;
18170;SDS011;9210;48.358;10.902;2023-06-10T06:32:44;14.25;;;9.52;;
18170;SDS011;9210;48.358;10.902;2023-06-10T06:35:13;13.40;;;9.40;;
18170;SDS011;9210;48.358;10.902;2023-06-10T06:37:42;13.50;;;9.63;;
18170;SDS011;9210;48.358;10.902;2023-06-10T06:40:24;13.98;;;9.52;;
18170;SDS011;9210;48.358;10.902;2023-06-10T06:42:53;14.65;;;10.18;;
18170;SDS011;9210;48.358;10.902;2023-06-10T06:45:32;12.45;;;9.02;;
18170;SDS011;9210;48.358;10.902;2023-06-10T06:48:00;13.35;;;8.98;;
18170;SDS011;9210;48.358;10.902;2023-06-10T06:50:29;15.05;;;9.07;;
18170;SDS011;9210;48.358;10.902;2023-06-10T06:52:59;13.93;;;7.80;;
18170;SDS011;9210;48.358;10.902;2023-06-10T06:55:28;11.75;;;8.80;;
18170;SDS011;9210;48.358;10.902;2023-06-10T06:57:57;12.63;;;9.07;;
18170;SDS011;9210;48.358;10.902;2023-06-10T07:00:29;13.55;;;9.13;;
18170;SDS011;9210;48.358;10.902;2023-06-10T07:02:58;12.77;;;8.60;;
18170;SDS011;9210;48.358;10.902;2023-06-10T07:05:27;14.35;;;9.30;;
18170;SDS011;9210;48.358;10.902;2023-06-10T07:07:56;12.35;;;8.18;;
18170;SDS011;9210;48.358;10.902;2023-06-10T07:10:26;12.85;;;8.35;;
18170;SDS011;9210;48.358;10.902;2023-06-10T07:12:55;12.05;;;8.80;;
18170;SDS011;9210;48.358;10.902;2023-06-10T07:15:23;13.02;;;8.80;;
18170;SDS011;9210;48.358;10.902;2023-06-10T07:17:52;13.70;;;9.10;;
18170;SDS011;9210;48.358;10.902;2023-06-10T07:20:22;10.80;;;7.70;;
18170;SDS011;9210;48.358;10.902;2023-06-10T07:22:52;12.23;;;8.63;;
18170;SDS011;9210;48.358;10.902;2023-06-10T07:25:20;12.43;;;8.73;;
18170;SDS011;9210;48.358;10.902;2023-06-10T07:27:50;11.32;;;8.02;;
18170;SDS011;9210;48.358;10.902;2023-06-10T07:30:18;12.93;;;8.40;;
18170;SDS011;9210;48.358;10.902;2023-06-10T07:32:47;10.95;;;8.25;;
18170;SDS011;9210;48.358;10.902;2023-06-10T07:35:15;12.25;;;9.00;;
18170;SDS011;9210;48.358;10.902;2023-06-10T07:37:44;12.32;;;7.85;;
18170;SDS011;9210;48.358;10.902;2023-06-10T07:40:13;12.02;;;8.23;;
18170;SDS011;9210;48.358;10.902;2023-06-10T07:42:41;11.63;;;7.80;;
18170;SDS011;9210;48.358;10.902;2023-06-10T07:45:11;11.57;;;7.32;;
18170;SDS011;9210;48.358;10.902;2023-06-10T07:47:40;10.20;;;7.65;;
18170;SDS011;9210;48.358;10.902;2023-06-10T07:50:09;10.95;;;7.60;;
18170;SDS011;9210;48.358;10.902;2023-06-10T07:52:37;11.32;;;7.57;;
18170;SDS011;9210;48.358;10.902;2023-06-10T07:55:06;9.23;;;7.07;;
18170;SDS011;9210;48.358;10.902;2023-06-10T07:57:35;10.82;;;6.57;;
18170;SDS011;9210;48.358;10.902;2023-06-10T08:00:05;11.27;;;7.03;;
18170;SDS011;9210;48.358;10.902;2023-06-10T08:02:42;11.98;;;7.65;;
18170;SDS011;9210;48.358;10.902;2023-06-10T08:05:11;10.25;;;7.50;;
18170;SDS011;9210;48.358;10.902;2023-06-10T08:07:39;9.77;;;7.13;;
18170;SDS011;9210;48.358;10.902;2023-06-10T08:10:09;11.50;;;7.57;;
18170;SDS011;9210;48.358;10.902;2023-06-10T08:12:38;10.75;;;7.13;;
18170;SDS011;9210;48.358;10.902;2023-06-10T08:15:07;10.07;;;6.88;;
18170;SDS011;9210;48.358;10.902;2023-06-10T08:17:37;10.18;;;6.80;;
18170;SDS011;9210;48.358;10.902;2023-06-10T08:20:07;11.80;;;7.47;;
18170;SDS011;9210;48.358;10.902;2023-06-10T08:22:36;8.98;;;6.88;;
18170;SDS011;9210;48.358;10.902;2023-06-10T08:25:06;10.93;;;7.03;;
18170;SDS011;9210;48.358;10.902;2023-06-10T08:27:35;10.80;;;7.13;;
18170;SDS011;9210;48.358;10.902;2023-06-10T08:30:04;9.20;;;6.20;;
18170;SDS011;9210;48.358;10.902;2023-06-10T08:32:32;9.38;;;7.07;;
18170;SDS011;9210;48.358;10.902;2023-06-10T08:35:01;10.90;;;7.55;;
18170;SDS011;9210;48.358;10.902;2023-06-10T08:37:31;9.82;;;7.07;;
18170;SDS011;9210;48.358;10.902;2023-06-10T08:39:59;10.98;;;6.45;;
18170;SDS011;9210;48.358;10.902;2023-06-10T08:42:28;10.18;;;6.72;;
18170;SDS011;9210;48.358;10.902;2023-06-10T08:45:00;7.13;;;5.40;;
18170;SDS011;9210;48.358;10.902;2023-06-10T08:47:29;6.25;;;5.00;;
18170;SDS011;9210;48.358;10.902;2023-06-10T08:50:00;6.40;;;4.60;;
18170;SDS011;9210;48.358;10.902;2023-06-10T08:52:35;8.18;;;5.90;;
18170;SDS011;9210;48.358;10.902;2023-06-10T08:55:18;8.30;;;5.22;;
18170;SDS011;9210;48.358;10.902;2023-06-10T08:57:48;7.13;;;5.05;;
18170;SDS011;9210;48.358;10.902;2023-06-10T09:00:17;7.70;;;4.97;;
18170;SDS011;9210;48.358;10.902;2023-06-10T09:02:46;8.55;;;5.80;;
18170;SDS011;9210;48.358;10.902;2023-06-10T09:05:15;7.13;;;5.35;;
18170;SDS011;9210;48.358;10.902;2023-06-10T09:07:46;6.70;;;5.03;;
18170;SDS011;9210;48.358;10.902;2023-06-10T09:10:15;8.52;;;4.90;;
18170;SDS011;9210;48.358;10.902;2023-06-10T09:12:44;7.45;;;5.10;;
18170;SDS011;9210;48.358;10.902;2023-06-10T09:15:14;6.63;;;4.97;;
18170;SDS011;9210;48.358;10.902;2023-06-10T09:17:43;7.22;;;4.90;;
18170;SDS011;9210;48.358;10.902;2023-06-10T09:20:13;8.02;;;5.22;;
18170;SDS011;9210;48.358;10.902;2023-06-10T09:22:42;7.88;;;4.82;;
18170;SDS011;9210;48.358;10.902;2023-06-10T09:25:12;7.88;;;4.63;;
18170;SDS011;9210;48.358;10.902;2023-06-10T09:27:44;8.02;;;5.63;;
18170;SDS011;9210;48.358;10.902;2023-06-10T09:30:25;6.88;;;4.95;;
18170;SDS011;9210;48.358;10.902;2023-06-10T09:32:54;7.38;;;4.88;;
18170;SDS011;9210;48.358;10.902;2023-06-10T09:35:23;7.40;;;4.97;;
18170;SDS011;9210;48.358;10.902;2023-06-10T09:37:53;7.82;;;5.10;;
18170;SDS011;9210;48.358;10.902;2023-06-10T09:40:23;7.75;;;5.25;;
18170;SDS011;9210;48.358;10.902;2023-06-10T09:42:52;8.40;;;4.57;;
18170;SDS011;9210;48.358;10.902;2023-06-10T09:45:22;7.10;;;4.80;;
18170;SDS011;9210;48.358;10.902;2023-06-10T09:47:51;6.43;;;5.25;;
18170;SDS011;9210;48.358;10.902;2023-06-10T09:50:20;9.63;;;5.10;;
18170;SDS011;9210;48.358;10.902;2023-06-10T09:52:49;6.35;;;4.30;;
18170;SDS011;9210;48.358;10.902;2023-06-10T09:55:20;7.78;;;4.68;;
18170;SDS011;9210;48.358;10.902;2023-06-10T09:57:52;8.13;;;4.80;;
18170;SDS011;9210;48.358;10.902;2023-06-10T10:00:22;7.47;;;4.80;;
18170;SDS011;9210;48.358;10.902;2023-06-10T10:02:52;5.75;;;4.50;;
18170;SDS011;9210;48.358;10.902;2023-06-10T10:05:21;8.18;;;5.50;;
18170;SDS011;9210;48.358;10.902;2023-06-10T10:07:51;6.18;;;5.00;;
18170;SDS011;9210;48.358;10.902;2023-06-10T10:10:20;6.72;;;4.57;;
18170;SDS011;9210;48.358;10.902;2023-06-10T10:12:53;7.70;;;4.95;;
18170;SDS011;9210;48.358;10.902;2023-06-10T10:15:23;6.82;;;4.57;;
18170;SDS011;9210;48.358;10.902;2023-06-10T10:17:53;7.30;;;4.55;;
18170;SDS011;9210;48.358;10.902;2023-06-10T10:20:26;7.13;;;4.70;;
18170;SDS011;9210;48.358;10.902;2023-06-10T10:22:56;6.63;;;4.80;;
18170;SDS011;9210;48.358;10.902;2023-06-10T10:25:27;10.10;;;4.55;;
18170;SDS011;9210;48.358;10.902;2023-06-10T10:27:58;8.02;;;4.65;;
18170;SDS011;9210;48.358;10.902;2023-06-10T10:30:28;5.60;;;4.70;;
18170;SDS011;9210;48.358;10.902;2023-06-10T10:33:00;9.43;;;5.45;;
18170;SDS011;9210;48.358;10.902;2023-06-10T10:35:36;7.65;;;5.45;;
18170;SDS011;9210;48.358;10.902;2023-06-10T10:38:06;10.40;;;5.60;;
18170;SDS011;9210;48.358;10.902;2023-06-10T10:40:35;8.27;;;5.97;;
18170;SDS011;9210;48.358;10.902;2023-06-10T10:43:05;7.03;;;5.45;;
18170;SDS011;9210;48.358;10.902;2023-06-10T10:45:34;7.72;;;5.35;;
18170;SDS011;9210;48.358;10.902;2023-06-10T10:48:05;8.02;;;5.43;;
18170;SDS011;9210;48.358;10.902;2023-06-10T10:50:35;7.45;;;5.43;;
18170;SDS011;9210;48.358;10.902;2023-06-10T10:53:04;7.43;;;5.60;;
18170;SDS011;9210;48.358;10.902;2023-06-10T10:55:33;8.45;;;5.93;;
18170;SDS011;9210;48.358;10.902;2023-06-10T10:58:02;8.65;;;5.22;;
18170;SDS011;9210;48.358;10.902;2023-06-10T11:00:33;9.02;;;6.05;;
18170;SDS011;9210;48.358;10.902;2023-06-10T11:03:05;8.70;;;6.30;;
18170;SDS011;9210;48.358;10.902;2023-06-10T11:05:38;7.82;;;5.65;;
18170;SDS011;9210;48.358;10.902;2023-06-10T11:08:08;8.15;;;5.10;;
18170;SDS011;9210;48.358;10.902;2023-06-10T11:10:37;7.80;;;5.10;;
18170;SDS011;9210;48.358;10.902;2023-06-10T11:13:07;6.00;;;4.57;;
18170;SDS011;9210;48.358;10.902;2023-06-10T11:15:43;6.28;;;4.40;;
18170;SDS011;9210;48.358;10.902;2023-06-10T11:18:15;9.52;;;4.63;;
18170;SDS011;9210;48.358;10.902;2023-06-10T11:20:51;7.93;;;4.80;;
18170;SDS011;9210;48.358;10.902;2023-06-10T11:23:40;5.80;;;5.20;;
18170;SDS011;9210;48.358;10.902;2023-06-10T11:26:09;8.30;;;5.55;;
18170;SDS011;9210;48.358;10.902;2023-06-10T11:28:38;6.65;;;4.95;;
18170;SDS011;9210;48.358;10.902;2023-06-10T11:31:08;7.07;;;5.65;;
18170;SDS011;9210;48.358;10.902;2023-06-10T11:33:39;8.30;;;5.65;;
18170;SDS011;9210;48.358;10.902;2023-06-10T11:36:08;6.97;;;5.53;;
18170;SDS011;9210;48.358;10.902;2023-06-10T11:38:37;7.63;;;4.95;;
18170;SDS011;9210;48.358;10.902;2023-06-10T11:41:05;7.60;;;5.47;;
18170;SDS011;9210;48.358;10.902;2023-06-10T11:43:34;8.77;;;5.20;;
18170;SDS011;9210;48.358;10.902;2023-06-10T11:46:05;7.53;;;5.20;;
18170;SDS011;9210;48.358;10.902;2023-06-10T11:48:36;6.82;;;5.22;;
18170;SDS011;9210;48.358;10.902;2023-06-10T11:51:06;7.68;;;5.70;;
18170;SDS011;9210;48.358;10.902;2023-06-10T11:53:34;7.38;;;5.68;;
18170;SDS011;9210;48.358;10.902;2023-06-10T11:56:03;7.82;;;6.10;;
18170;SDS011;9210;48.358;10.902;2023-06-10T11:58:32;8.73;;;5.70;;
18170;SDS011;9210;48.358;10.902;2023-06-10T12:01:00;7.88;;;5.75;;
18170;SDS011;9210;48.358;10.902;2023-06-10T12:03:36;7.13;;;5.68;;
18170;SDS011;9210;48.358;10.902;2023-06-10T12:06:06;8.05;;;6.28;;
18170;SDS011;9210;48.358;10.902;2023-06-10T12:08:37;8.27;;;6.25;;
18170;SDS011;9210;48.358;10.902;2023-06-10T12:11:09;9.05;;;5.78;;
18170;SDS011;9210;48.358;10.902;2023-06-10T12:13:38;10.68;;;6.32;;
18170;SDS011;9210;48.358;10.902;2023-06-10T12:16:17;8.20;;;6.05;;
18170;SDS011;9210;48.358;10.902;2023-06-10T12:18:48;7.35;;;6.20;;
18170;SDS011;9210;48.358;10.902;2023-06-10T12:21:18;7.63;;;6.05;;
18170;SDS011;9210;48.358;10.902;2023-06-10T12:24:04;8.07;;;6.10;;
18170;SDS011;9210;48.358;10.902;2023-06-10T12:26:37;8.32;;;5.53;;
18170;SDS011;9210;48.358;10.902;2023-06-10T12:29:16;9.10;;;5.75;;
18170;SDS011;9210;48.358;10.902;2023-06-10T12:31:57;7.65;;;5.82;;
18170;SDS011;9210;48.358;10.902;2023-06-10T12:37:18;7.75;;;5.75;;
18170;SDS011;9210;48.358;10.902;2023-06-10T12:39:50;8.82;;;6.07;;
18170;SDS011;9210;48.358;10.902;2023-06-10T12:42:21;9.25;;;5.93;;
18170;SDS011;9210;48.358;10.902;2023-06-10T12:44:53;7.07;;;5.80;;
18170;SDS011;9210;48.358;10.902;2023-06-10T12:47:29;6.10;;;5.07;;
18170;SDS011;9210;48.358;10.902;2023-06-10T12:49:59;6.18;;;5.15;;
18170;SDS011;9210;48.358;10.902;2023-06-10T12:52:29;6.95;;;5.43;;
18170;SDS011;9210;48.358;10.902;2023-06-10T12:54:57;6.47;;;5.18;;
18170;SDS011;9210;48.358;10.902;2023-06-10T12:57:27;7.63;;;5.80;;
18170;SDS011;9210;48.358;10.902;2023-06-10T12:59:56;7.65;;;5.78;;
18170;SDS011;9210;48.358;10.902;2023-06-10T13:02:30;7.20;;;5.18;;
18170;SDS011;9210;48.358;10.902;2023-06-10T13:04:59;7.93;;;4.95;;
18170;SDS011;9210;48.358;10.902;2023-06-10T13:07:30;7.28;;;5.60;;
18170;SDS011;9210;48.358;10.902;2023-06-10T13:09:59;7.20;;;5.57;;
18170;SDS011;9210;48.358;10.902;2023-06-10T13:12:28;8.05;;;5.47;;
18170;SDS011;9210;48.358;10.902;2023-06-10T13:15:13;7.60;;;5.35;;
18170;SDS011;9210;48.358;10.902;2023-06-10T13:17:42;8.10;;;5.30;;
18170;SDS011;9210;48.358;10.902;2023-06-10T13:20:12;6.93;;;5.57;;
18170;SDS011;9210;48.358;10.902;2023-06-10T13:22:42;11.80;;;5.43;;
18170;SDS011;9210;48.358;10.902;2023-06-10T13:25:11;7.18;;;4.95;;
18170;SDS011;9210;48.358;10.902;2023-06-10T13:27:40;5.85;;;4.82;;
18170;SDS011;9210;48.358;10.902;2023-06-10T13:30:09;5.30;;;4.22;;
18170;SDS011;9210;48.358;10.902;2023-06-10T13:32:38;6.20;;;4.18;;
18170;SDS011;9210;48.358;10.902;2023-06-10T13:35:07;6.38;;;4.22;;
18170;SDS011;9210;48.358;10.902;2023-06-10T13:37:36;5.78;;;4.20;;
18170;SDS011;9210;48.358;10.902;2023-06-10T13:40:10;4.40;;;3.83;;
18170;SDS011;9210;48.358;10.902;2023-06-10T13:42:39;5.97;;;4.05;;
18170;SDS011;9210;48.358;10.902;2023-06-10T13:45:08;4.50;;;3.85;;
18170;SDS011;9210;48.358;10.902;2023-06-10T13:47:37;5.88;;;4.63;;
18170;SDS011;9210;48.358;10.902;2023-06-10T13:50:06;5.03;;;3.78;;
18170;SDS011;9210;48.358;10.902;2023-06-10T13:52:35;6.47;;;4.00;;
18170;SDS011;9210;48.358;10.902;2023-06-10T13:55:10;5.25;;;3.88;;
18170;SDS011;9210;48.358;10.902;2023-06-10T13:57:39;4.80;;;3.67;;
18170;SDS011;9210;48.358;10.902;2023-06-10T14:00:08;3.95;;;3.42;;
18170;SDS011;9210;48.358;10.902;2023-06-10T14:02:37;5.35;;;3.70;;
18170;SDS011;9210;48.358;10.902;2023-06-10T14:05:06;23.15;;;12.40;;
18170;SDS011;9210;48.358;10.902;2023-06-10T14:07:36;6.15;;;4.00;;
18170;SDS011;9210;48.358;10.902;2023-06-10T14:10:05;6.60;;;4.55;;
18170;SDS011;9210;48.358;10.902;2023-06-10T14:12:37;4.95;;;4.00;;
18170;SDS011;9210;48.358;10.902;2023-06-10T14:15:06;5.70;;;4.03;;
18170;SDS011;9210;48.358;10.902;2023-06-10T14:17:35;8.32;;;4.35;;
18170;SDS011;9210;48.358;10.902;2023-06-10T14:20:04;5.03;;;4.00;;
18170;SDS011;9210;48.358;10.902;2023-06-10T14:22:33;5.75;;;3.67;;
18170;SDS011;9210;48.358;10.902;2023-06-10T14:25:02;5.72;;;3.80;;
18170;SDS011;9210;48.358;10.902;2023-06-10T14:27:31;5.05;;;3.60;;
18170;SDS011;9210;48.358;10.902;2023-06-10T14:30:02;6.05;;;3.70;;
18170;SDS011;9210;48.358;10.902;2023-06-10T14:32:32;5.80;;;3.60;;
18170;SDS011;9210;48.358;10.902;2023-06-10T14:35:01;4.90;;;3.50;;
18170;SDS011;9210;48.358;10.902;2023-06-10T14:37:30;4.30;;;3.60;;
18170;SDS011;9210;48.358;10.902;2023-06-10T14:40:00;5.35;;;3.17;;
18170;SDS011;9210;48.358;10.902;2023-06-10T14:42:29;4.45;;;3.00;;
18170;SDS011;9210;48.358;10.902;2023-06-10T14:44:58;3.97;;;3.22;;
18170;SDS011;9210;48.358;10.902;2023-06-10T14:47:28;5.88;;;3.25;;
18170;SDS011;9210;48.358;10.902;2023-06-10T14:49:56;4.97;;;3.38;;
18170;SDS011;9210;48.358;10.902;2023-06-10T14:52:25;5.03;;;3.60;;
18170;SDS011;9210;48.358;10.902;2023-06-10T14:54:54;5.68;;;3.67;;
18170;SDS011;9210;48.358;10.902;2023-06-10T14:57:22;4.78;;;3.88;;
18170;SDS011;9210;48.358;10.902;2023-06-10T14:59:51;6.32;;;3.85;;